sensor_id;sensor_type;location;lat;lon;timestamp;P1;durP1;ratioP1;P2;durP2;ratioP2
20445;SDS011;10382;49.140;9.234;2023-04-15T00:02:14;16.40;;;4.97;;
20445;SDS011;10382;49.140;9.234;2023-04-15T00:04:43;18.10;;;5.87;;
20445;SDS011;10382;49.140;9.234;2023-04-15T00:07:10;15.40;;;5.07;;
20445;SDS011;10382;49.140;9.234;2023-04-15T00:09:37;15.20;;;5.27;;
20445;SDS011;10382;49.140;9.234;2023-04-15T00:12:04;14.20;;;4.53;;
20445;SDS011;10382;49.140;9.234;2023-04-15T00:14:32;14.27;;;4.63;;
20445;SDS011;10382;49.140;9.234;2023-04-15T00:17:00;18.17;;;5.93;;
20445;SDS011;10382;49.140;9.234;2023-04-15T00:19:28;28.57;;;6.53;;
20445;SDS011;10382;49.140;9.234;2023-04-15T00:21:56;16.60;;;5.70;;
20445;SDS011;10382;49.140;9.234;2023-04-15T00:24:23;18.70;;;5.30;;
20445;SDS011;10382;49.140;9.234;2023-04-15T00:26:50;23.33;;;7.07;;
20445;SDS011;10382;49.140;9.234;2023-04-15T00:29:17;26.27;;;7.27;;
20445;SDS011;10382;49.140;9.234;2023-04-15T00:31:44;19.87;;;5.10;;
20445;SDS011;10382;49.140;9.234;2023-04-15T00:34:12;14.97;;;5.17;;
20445;SDS011;10382;49.140;9.234;2023-04-15T00:36:39;19.50;;;5.53;;
20445;SDS011;10382;49.140;9.234;2023-04-15T00:39:07;15.60;;;5.23;;
20445;SDS011;10382;49.140;9.234;2023-04-15T00:41:35;16.40;;;5.93;;
20445;SDS011;10382;49.140;9.234;2023-04-15T00:44:04;16.97;;;5.30;;
20445;SDS011;10382;49.140;9.234;2023-04-15T00:46:31;22.33;;;7.00;;
20445;SDS011;10382;49.140;9.234;2023-04-15T00:49:01;28.10;;;7.00;;
20445;SDS011;10382;49.140;9.234;2023-04-15T00:51:29;29.23;;;8.73;;
20445;SDS011;10382;49.140;9.234;2023-04-15T00:53:57;13.40;;;4.93;;
20445;SDS011;10382;49.140;9.234;2023-04-15T00:56:26;12.00;;;4.93;;
20445;SDS011;10382;49.140;9.234;2023-04-15T00:58:54;15.47;;;5.50;;
20445;SDS011;10382;49.140;9.234;2023-04-15T01:01:21;15.97;;;5.80;;
20445;SDS011;10382;49.140;9.234;2023-04-15T01:03:51;27.10;;;7.80;;
20445;SDS011;10382;49.140;9.234;2023-04-15T01:06:18;11.90;;;4.07;;
20445;SDS011;10382;49.140;9.234;2023-04-15T01:08:45;31.33;;;8.50;;
20445;SDS011;10382;49.140;9.234;2023-04-15T01:11:12;13.20;;;4.03;;
20445;SDS011;10382;49.140;9.234;2023-04-15T01:13:41;21.53;;;5.53;;
20445;SDS011;10382;49.140;9.234;2023-04-15T01:16:08;14.93;;;5.17;;
20445;SDS011;10382;49.140;9.234;2023-04-15T01:18:36;21.97;;;5.60;;
20445;SDS011;10382;49.140;9.234;2023-04-15T01:21:03;12.00;;;3.80;;
20445;SDS011;10382;49.140;9.234;2023-04-15T01:23:31;26.13;;;7.40;;
20445;SDS011;10382;49.140;9.234;2023-04-15T01:26:02;14.47;;;5.17;;
20445;SDS011;10382;49.140;9.234;2023-04-15T01:28:30;11.73;;;3.93;;
20445;SDS011;10382;49.140;9.234;2023-04-15T01:31:07;27.13;;;7.80;;
20445;SDS011;10382;49.140;9.234;2023-04-15T01:33:36;17.07;;;5.60;;
20445;SDS011;10382;49.140;9.234;2023-04-15T01:36:03;13.23;;;4.97;;
20445;SDS011;10382;49.140;9.234;2023-04-15T01:38:32;13.53;;;5.07;;
20445;SDS011;10382;49.140;9.234;2023-04-15T01:41:00;16.07;;;5.90;;
20445;SDS011;10382;49.140;9.234;2023-04-15T01:43:29;15.80;;;5.20;;
20445;SDS011;10382;49.140;9.234;2023-04-15T01:45:56;30.17;;;7.53;;
20445;SDS011;10382;49.140;9.234;2023-04-15T01:48:23;17.00;;;5.53;;
20445;SDS011;10382;49.140;9.234;2023-04-15T01:50:51;22.53;;;6.80;;
20445;SDS011;10382;49.140;9.234;2023-04-15T01:53:21;17.30;;;4.80;;
20445;SDS011;10382;49.140;9.234;2023-04-15T01:55:48;24.00;;;7.47;;
20445;SDS011;10382;49.140;9.234;2023-04-15T01:58:15;18.37;;;5.63;;
20445;SDS011;10382;49.140;9.234;2023-04-15T02:00:43;22.60;;;4.90;;
20445;SDS011;10382;49.140;9.234;2023-04-15T02:03:10;22.53;;;7.13;;
20445;SDS011;10382;49.140;9.234;2023-04-15T02:05:37;16.53;;;5.03;;
20445;SDS011;10382;49.140;9.234;2023-04-15T02:08:04;16.90;;;5.40;;
20445;SDS011;10382;49.140;9.234;2023-04-15T02:10:31;23.27;;;6.50;;
20445;SDS011;10382;49.140;9.234;2023-04-15T02:12:57;21.57;;;5.83;;
20445;SDS011;10382;49.140;9.234;2023-04-15T02:15:25;17.33;;;6.23;;
20445;SDS011;10382;49.140;9.234;2023-04-15T02:17:53;14.13;;;5.20;;
20445;SDS011;10382;49.140;9.234;2023-04-15T02:20:20;14.80;;;4.83;;
20445;SDS011;10382;49.140;9.234;2023-04-15T02:22:47;13.90;;;5.10;;
20445;SDS011;10382;49.140;9.234;2023-04-15T02:25:14;14.10;;;4.30;;
20445;SDS011;10382;49.140;9.234;2023-04-15T02:27:42;14.43;;;4.90;;
20445;SDS011;10382;49.140;9.234;2023-04-15T02:30:09;20.90;;;5.47;;
20445;SDS011;10382;49.140;9.234;2023-04-15T02:32:36;13.93;;;4.73;;
20445;SDS011;10382;49.140;9.234;2023-04-15T02:35:05;16.53;;;4.40;;
20445;SDS011;10382;49.140;9.234;2023-04-15T02:37:33;19.13;;;6.03;;
20445;SDS011;10382;49.140;9.234;2023-04-15T02:40:05;9.63;;;3.70;;
20445;SDS011;10382;49.140;9.234;2023-04-15T02:42:33;13.13;;;4.23;;
20445;SDS011;10382;49.140;9.234;2023-04-15T02:45:00;20.97;;;6.83;;
20445;SDS011;10382;49.140;9.234;2023-04-15T02:47:27;21.97;;;5.30;;
20445;SDS011;10382;49.140;9.234;2023-04-15T02:49:54;14.73;;;5.33;;
20445;SDS011;10382;49.140;9.234;2023-04-15T02:52:23;15.13;;;5.50;;
20445;SDS011;10382;49.140;9.234;2023-04-15T02:54:50;18.17;;;5.57;;
20445;SDS011;10382;49.140;9.234;2023-04-15T02:57:17;18.83;;;5.00;;
20445;SDS011;10382;49.140;9.234;2023-04-15T02:59:44;21.83;;;5.35;;
20445;SDS011;10382;49.140;9.234;2023-04-15T03:02:11;16.70;;;5.80;;
20445;SDS011;10382;49.140;9.234;2023-04-15T03:04:38;29.47;;;8.40;;
20445;SDS011;10382;49.140;9.234;2023-04-15T03:07:05;18.97;;;5.70;;
20445;SDS011;10382;49.140;9.234;2023-04-15T03:09:33;16.30;;;5.50;;
20445;SDS011;10382;49.140;9.234;2023-04-15T03:12:00;10.00;;;4.03;;
20445;SDS011;10382;49.140;9.234;2023-04-15T03:14:27;13.17;;;4.20;;
20445;SDS011;10382;49.140;9.234;2023-04-15T03:16:54;12.43;;;4.57;;
20445;SDS011;10382;49.140;9.234;2023-04-15T03:19:21;28.20;;;7.00;;
20445;SDS011;10382;49.140;9.234;2023-04-15T03:21:48;27.97;;;7.93;;
20445;SDS011;10382;49.140;9.234;2023-04-15T03:24:16;19.97;;;5.10;;
20445;SDS011;10382;49.140;9.234;2023-04-15T03:26:44;20.13;;;6.00;;
20445;SDS011;10382;49.140;9.234;2023-04-15T03:29:11;12.90;;;4.90;;
20445;SDS011;10382;49.140;9.234;2023-04-15T03:31:38;15.17;;;4.60;;
20445;SDS011;10382;49.140;9.234;2023-04-15T03:34:05;10.30;;;3.90;;
20445;SDS011;10382;49.140;9.234;2023-04-15T03:36:31;12.77;;;4.37;;
20445;SDS011;10382;49.140;9.234;2023-04-15T03:38:58;17.03;;;4.87;;
20445;SDS011;10382;49.140;9.234;2023-04-15T03:41:26;23.43;;;7.60;;
20445;SDS011;10382;49.140;9.234;2023-04-15T03:43:54;27.50;;;8.77;;
20445;SDS011;10382;49.140;9.234;2023-04-15T03:46:22;21.67;;;5.87;;
20445;SDS011;10382;49.140;9.234;2023-04-15T03:48:49;21.10;;;6.57;;
20445;SDS011;10382;49.140;9.234;2023-04-15T03:51:16;13.60;;;4.63;;
20445;SDS011;10382;49.140;9.234;2023-04-15T03:53:43;21.90;;;6.73;;
20445;SDS011;10382;49.140;9.234;2023-04-15T03:56:10;16.33;;;4.70;;
20445;SDS011;10382;49.140;9.234;2023-04-15T03:58:36;18.47;;;5.30;;
20445;SDS011;10382;49.140;9.234;2023-04-15T04:01:05;18.80;;;5.40;;
20445;SDS011;10382;49.140;9.234;2023-04-15T04:03:32;17.97;;;6.13;;
20445;SDS011;10382;49.140;9.234;2023-04-15T04:05:59;15.70;;;5.30;;
20445;SDS011;10382;49.140;9.234;2023-04-15T04:08:26;17.83;;;4.70;;
20445;SDS011;10382;49.140;9.234;2023-04-15T04:10:52;30.37;;;9.23;;
20445;SDS011;10382;49.140;9.234;2023-04-15T04:13:20;19.13;;;5.77;;
20445;SDS011;10382;49.140;9.234;2023-04-15T04:15:47;18.27;;;4.50;;
20445;SDS011;10382;49.140;9.234;2023-04-15T04:18:15;16.60;;;5.83;;
20445;SDS011;10382;49.140;9.234;2023-04-15T04:20:42;15.03;;;4.47;;
20445;SDS011;10382;49.140;9.234;2023-04-15T04:23:09;27.17;;;7.40;;
20445;SDS011;10382;49.140;9.234;2023-04-15T04:25:35;15.37;;;4.90;;
20445;SDS011;10382;49.140;9.234;2023-04-15T04:28:03;18.63;;;5.40;;
20445;SDS011;10382;49.140;9.234;2023-04-15T04:30:30;29.52;;;8.63;;
20445;SDS011;10382;49.140;9.234;2023-04-15T04:32:56;23.93;;;5.87;;
20445;SDS011;10382;49.140;9.234;2023-04-15T04:35:25;13.07;;;4.80;;
20445;SDS011;10382;49.140;9.234;2023-04-15T04:37:52;17.33;;;5.57;;
20445;SDS011;10382;49.140;9.234;2023-04-15T04:40:18;14.33;;;5.40;;
20445;SDS011;10382;49.140;9.234;2023-04-15T04:42:46;15.10;;;5.10;;
20445;SDS011;10382;49.140;9.234;2023-04-15T04:45:13;28.73;;;7.73;;
20445;SDS011;10382;49.140;9.234;2023-04-15T04:47:39;22.40;;;7.17;;
20445;SDS011;10382;49.140;9.234;2023-04-15T04:50:07;26.80;;;8.23;;
20445;SDS011;10382;49.140;9.234;2023-04-15T04:52:35;20.67;;;7.03;;
20445;SDS011;10382;49.140;9.234;2023-04-15T04:55:03;31.53;;;9.67;;
20445;SDS011;10382;49.140;9.234;2023-04-15T04:57:30;16.10;;;6.13;;
20445;SDS011;10382;49.140;9.234;2023-04-15T04:59:57;21.70;;;7.30;;
20445;SDS011;10382;49.140;9.234;2023-04-15T05:02:24;24.30;;;7.13;;
20445;SDS011;10382;49.140;9.234;2023-04-15T05:04:52;31.50;;;9.10;;
20445;SDS011;10382;49.140;9.234;2023-04-15T05:07:19;29.67;;;7.23;;
20445;SDS011;10382;49.140;9.234;2023-04-15T05:09:47;40.87;;;11.23;;
20445;SDS011;10382;49.140;9.234;2023-04-15T05:12:14;34.30;;;9.30;;
20445;SDS011;10382;49.140;9.234;2023-04-15T05:14:42;26.83;;;7.90;;
20445;SDS011;10382;49.140;9.234;2023-04-15T05:17:10;31.40;;;8.67;;
20445;SDS011;10382;49.140;9.234;2023-04-15T05:19:38;26.73;;;6.50;;
20445;SDS011;10382;49.140;9.234;2023-04-15T05:22:04;23.33;;;7.57;;
20445;SDS011;10382;49.140;9.234;2023-04-15T05:24:31;20.17;;;6.63;;
20445;SDS011;10382;49.140;9.234;2023-04-15T05:26:59;27.33;;;7.57;;
20445;SDS011;10382;49.140;9.234;2023-04-15T05:29:27;27.03;;;7.90;;
20445;SDS011;10382;49.140;9.234;2023-04-15T05:31:54;24.07;;;7.30;;
20445;SDS011;10382;49.140;9.234;2023-04-15T05:34:21;17.30;;;6.40;;
20445;SDS011;10382;49.140;9.234;2023-04-15T05:36:48;29.73;;;8.50;;
20445;SDS011;10382;49.140;9.234;2023-04-15T05:39:16;24.50;;;7.37;;
20445;SDS011;10382;49.140;9.234;2023-04-15T05:41:43;26.73;;;7.43;;
20445;SDS011;10382;49.140;9.234;2023-04-15T05:44:12;18.75;;;6.30;;
20445;SDS011;10382;49.140;9.234;2023-04-15T05:46:39;45.20;;;10.03;;
20445;SDS011;10382;49.140;9.234;2023-04-15T05:49:06;21.53;;;6.63;;
20445;SDS011;10382;49.140;9.234;2023-04-15T05:51:33;29.40;;;8.30;;
20445;SDS011;10382;49.140;9.234;2023-04-15T05:54:00;21.40;;;6.03;;
20445;SDS011;10382;49.140;9.234;2023-04-15T05:56:26;26.90;;;8.27;;
20445;SDS011;10382;49.140;9.234;2023-04-15T05:58:53;58.17;;;10.90;;
20445;SDS011;10382;49.140;9.234;2023-04-15T06:01:22;35.07;;;9.30;;
20445;SDS011;10382;49.140;9.234;2023-04-15T06:03:49;24.97;;;7.60;;
20445;SDS011;10382;49.140;9.234;2023-04-15T06:06:16;26.37;;;7.77;;
20445;SDS011;10382;49.140;9.234;2023-04-15T06:08:44;26.97;;;6.97;;
20445;SDS011;10382;49.140;9.234;2023-04-15T06:11:11;23.20;;;7.20;;
20445;SDS011;10382;49.140;9.234;2023-04-15T06:13:38;33.60;;;8.97;;
20445;SDS011;10382;49.140;9.234;2023-04-15T06:16:05;28.60;;;8.53;;
20445;SDS011;10382;49.140;9.234;2023-04-15T06:18:33;27.43;;;8.30;;
20445;SDS011;10382;49.140;9.234;2023-04-15T06:21:00;25.43;;;7.07;;
20445;SDS011;10382;49.140;9.234;2023-04-15T06:23:27;26.63;;;7.77;;
20445;SDS011;10382;49.140;9.234;2023-04-15T06:25:54;24.70;;;8.20;;
20445;SDS011;10382;49.140;9.234;2023-04-15T06:28:21;22.50;;;7.83;;
20445;SDS011;10382;49.140;9.234;2023-04-15T06:30:48;38.00;;;11.90;;
20445;SDS011;10382;49.140;9.234;2023-04-15T06:33:15;22.20;;;7.20;;
20445;SDS011;10382;49.140;9.234;2023-04-15T06:35:43;23.53;;;7.93;;
20445;SDS011;10382;49.140;9.234;2023-04-15T06:38:10;28.87;;;8.50;;
20445;SDS011;10382;49.140;9.234;2023-04-15T06:40:37;29.03;;;8.87;;
20445;SDS011;10382;49.140;9.234;2023-04-15T06:43:03;27.67;;;9.03;;
20445;SDS011;10382;49.140;9.234;2023-04-15T06:45:30;29.07;;;9.90;;
20445;SDS011;10382;49.140;9.234;2023-04-15T06:47:57;15.63;;;6.40;;
20445;SDS011;10382;49.140;9.234;2023-04-15T06:50:24;26.73;;;9.33;;
20445;SDS011;10382;49.140;9.234;2023-04-15T06:52:52;28.00;;;8.90;;
20445;SDS011;10382;49.140;9.234;2023-04-15T06:55:21;33.27;;;10.37;;
20445;SDS011;10382;49.140;9.234;2023-04-15T06:57:48;36.57;;;10.00;;
20445;SDS011;10382;49.140;9.234;2023-04-15T07:00:15;33.07;;;11.43;;
20445;SDS011;10382;49.140;9.234;2023-04-15T07:02:43;21.00;;;9.00;;
20445;SDS011;10382;49.140;9.234;2023-04-15T07:05:10;16.93;;;8.53;;
20445;SDS011;10382;49.140;9.234;2023-04-15T07:07:37;15.27;;;8.13;;
20445;SDS011;10382;49.140;9.234;2023-04-15T07:10:06;16.50;;;7.57;;
20445;SDS011;10382;49.140;9.234;2023-04-15T07:12:34;12.10;;;6.27;;
20445;SDS011;10382;49.140;9.234;2023-04-15T07:15:01;15.90;;;8.03;;
20445;SDS011;10382;49.140;9.234;2023-04-15T07:17:28;19.83;;;8.53;;
20445;SDS011;10382;49.140;9.234;2023-04-15T07:19:55;17.47;;;8.80;;
20445;SDS011;10382;49.140;9.234;2023-04-15T07:22:22;19.70;;;9.47;;
20445;SDS011;10382;49.140;9.234;2023-04-15T07:24:49;19.70;;;9.70;;
20445;SDS011;10382;49.140;9.234;2023-04-15T07:27:17;28.13;;;9.00;;
20445;SDS011;10382;49.140;9.234;2023-04-15T07:29:43;19.83;;;10.30;;
20445;SDS011;10382;49.140;9.234;2023-04-15T07:32:10;24.97;;;11.43;;
20445;SDS011;10382;49.140;9.234;2023-04-15T07:34:37;21.50;;;10.60;;
20445;SDS011;10382;49.140;9.234;2023-04-15T07:37:05;19.10;;;8.50;;
20445;SDS011;10382;49.140;9.234;2023-04-15T07:39:32;30.03;;;11.40;;
20445;SDS011;10382;49.140;9.234;2023-04-15T07:41:59;18.43;;;8.83;;
20445;SDS011;10382;49.140;9.234;2023-04-15T07:44:27;23.53;;;11.50;;
20445;SDS011;10382;49.140;9.234;2023-04-15T07:46:54;25.07;;;9.80;;
20445;SDS011;10382;49.140;9.234;2023-04-15T07:49:21;18.17;;;6.53;;
20445;SDS011;10382;49.140;9.234;2023-04-15T07:51:48;23.07;;;8.87;;
20445;SDS011;10382;49.140;9.234;2023-04-15T07:54:15;20.93;;;8.77;;
20445;SDS011;10382;49.140;9.234;2023-04-15T07:56:42;21.33;;;8.47;;
20445;SDS011;10382;49.140;9.234;2023-04-15T07:59:09;15.27;;;7.90;;
20445;SDS011;10382;49.140;9.234;2023-04-15T08:01:38;16.47;;;7.90;;
20445;SDS011;10382;49.140;9.234;2023-04-15T08:04:05;16.43;;;7.30;;
20445;SDS011;10382;49.140;9.234;2023-04-15T08:06:32;24.83;;;10.03;;
20445;SDS011;10382;49.140;9.234;2023-04-15T08:08:58;18.03;;;7.80;;
20445;SDS011;10382;49.140;9.234;2023-04-15T08:11:25;19.80;;;7.97;;
20445;SDS011;10382;49.140;9.234;2023-04-15T08:13:52;18.00;;;8.00;;
20445;SDS011;10382;49.140;9.234;2023-04-15T08:16:20;21.73;;;8.40;;
20445;SDS011;10382;49.140;9.234;2023-04-15T08:18:50;27.97;;;10.17;;
20445;SDS011;10382;49.140;9.234;2023-04-15T08:21:18;14.67;;;7.23;;
20445;SDS011;10382;49.140;9.234;2023-04-15T08:23:45;23.73;;;7.90;;
20445;SDS011;10382;49.140;9.234;2023-04-15T08:26:13;17.93;;;6.50;;
20445;SDS011;10382;49.140;9.234;2023-04-15T08:28:40;15.17;;;7.60;;
20445;SDS011;10382;49.140;9.234;2023-04-15T08:31:08;17.50;;;9.10;;
20445;SDS011;10382;49.140;9.234;2023-04-15T08:33:35;22.07;;;8.67;;
20445;SDS011;10382;49.140;9.234;2023-04-15T08:36:03;14.40;;;7.53;;
20445;SDS011;10382;49.140;9.234;2023-04-15T08:38:31;21.30;;;7.20;;
20445;SDS011;10382;49.140;9.234;2023-04-15T08:40:59;21.10;;;7.27;;
20445;SDS011;10382;49.140;9.234;2023-04-15T08:43:32;22.20;;;9.23;;
20445;SDS011;10382;49.140;9.234;2023-04-15T08:46:00;13.20;;;7.27;;
20445;SDS011;10382;49.140;9.234;2023-04-15T08:48:31;20.87;;;9.27;;
20445;SDS011;10382;49.140;9.234;2023-04-15T08:50:59;21.13;;;9.10;;
20445;SDS011;10382;49.140;9.234;2023-04-15T08:53:28;22.83;;;8.73;;
20445;SDS011;10382;49.140;9.234;2023-04-15T08:55:56;19.20;;;7.87;;
20445;SDS011;10382;49.140;9.234;2023-04-15T08:58:25;14.17;;;6.80;;
20445;SDS011;10382;49.140;9.234;2023-04-15T09:00:52;21.83;;;8.83;;
20445;SDS011;10382;49.140;9.234;2023-04-15T09:03:20;12.90;;;6.97;;
20445;SDS011;10382;49.140;9.234;2023-04-15T09:05:47;17.50;;;9.30;;
20445;SDS011;10382;49.140;9.234;2023-04-15T09:08:16;29.00;;;10.03;;
20445;SDS011;10382;49.140;9.234;2023-04-15T09:10:44;22.30;;;8.40;;
20445;SDS011;10382;49.140;9.234;2023-04-15T09:13:11;15.67;;;8.17;;
20445;SDS011;10382;49.140;9.234;2023-04-15T09:15:38;18.77;;;7.60;;
20445;SDS011;10382;49.140;9.234;2023-04-15T09:18:05;17.47;;;8.30;;
20445;SDS011;10382;49.140;9.234;2023-04-15T09:20:37;17.83;;;8.73;;
20445;SDS011;10382;49.140;9.234;2023-04-15T09:23:10;19.47;;;9.47;;
20445;SDS011;10382;49.140;9.234;2023-04-15T09:25:38;16.13;;;7.53;;
20445;SDS011;10382;49.140;9.234;2023-04-15T09:28:07;18.70;;;8.33;;
20445;SDS011;10382;49.140;9.234;2023-04-15T09:30:34;14.83;;;7.00;;
20445;SDS011;10382;49.140;9.234;2023-04-15T09:33:03;22.30;;;10.23;;
20445;SDS011;10382;49.140;9.234;2023-04-15T09:35:32;17.57;;;9.03;;
20445;SDS011;10382;49.140;9.234;2023-04-15T09:38:02;16.17;;;8.10;;
20445;SDS011;10382;49.140;9.234;2023-04-15T09:40:32;14.43;;;7.37;;
20445;SDS011;10382;49.140;9.234;2023-04-15T09:43:00;30.97;;;10.90;;
20445;SDS011;10382;49.140;9.234;2023-04-15T09:45:29;16.90;;;7.00;;
20445;SDS011;10382;49.140;9.234;2023-04-15T09:47:56;27.13;;;8.27;;
20445;SDS011;10382;49.140;9.234;2023-04-15T09:50:26;14.63;;;7.37;;
20445;SDS011;10382;49.140;9.234;2023-04-15T09:52:53;15.87;;;6.67;;
20445;SDS011;10382;49.140;9.234;2023-04-15T09:55:20;13.53;;;6.97;;
20445;SDS011;10382;49.140;9.234;2023-04-15T09:57:47;16.47;;;6.90;;
20445;SDS011;10382;49.140;9.234;2023-04-15T10:00:14;25.53;;;8.23;;
20445;SDS011;10382;49.140;9.234;2023-04-15T10:02:43;24.60;;;6.63;;
20445;SDS011;10382;49.140;9.234;2023-04-15T10:05:13;19.93;;;5.90;;
20445;SDS011;10382;49.140;9.234;2023-04-15T10:07:40;17.30;;;5.97;;
20445;SDS011;10382;49.140;9.234;2023-04-15T10:10:08;15.03;;;5.97;;
20445;SDS011;10382;49.140;9.234;2023-04-15T10:12:37;14.37;;;5.80;;
20445;SDS011;10382;49.140;9.234;2023-04-15T10:15:06;16.53;;;7.27;;
20445;SDS011;10382;49.140;9.234;2023-04-15T10:17:40;15.90;;;6.90;;
20445;SDS011;10382;49.140;9.234;2023-04-15T10:20:11;13.90;;;6.10;;
20445;SDS011;10382;49.140;9.234;2023-04-15T10:22:39;15.27;;;7.63;;
20445;SDS011;10382;49.140;9.234;2023-04-15T10:25:07;11.33;;;5.67;;
20445;SDS011;10382;49.140;9.234;2023-04-15T10:27:35;31.93;;;7.30;;
20445;SDS011;10382;49.140;9.234;2023-04-15T10:30:05;16.70;;;5.67;;
20445;SDS011;10382;49.140;9.234;2023-04-15T10:32:33;12.70;;;6.33;;
20445;SDS011;10382;49.140;9.234;2023-04-15T10:35:02;13.93;;;6.00;;
20445;SDS011;10382;49.140;9.234;2023-04-15T10:37:32;13.30;;;5.80;;
20445;SDS011;10382;49.140;9.234;2023-04-15T10:40:12;17.80;;;7.33;;
20445;SDS011;10382;49.140;9.234;2023-04-15T10:42:51;33.63;;;7.87;;
20445;SDS011;10382;49.140;9.234;2023-04-15T10:45:18;18.13;;;6.60;;
20445;SDS011;10382;49.140;9.234;2023-04-15T10:47:46;27.67;;;9.30;;
20445;SDS011;10382;49.140;9.234;2023-04-15T10:50:19;17.77;;;6.97;;
20445;SDS011;10382;49.140;9.234;2023-04-15T10:52:49;16.30;;;6.00;;
20445;SDS011;10382;49.140;9.234;2023-04-15T10:55:18;14.63;;;6.17;;
20445;SDS011;10382;49.140;9.234;2023-04-15T10:57:46;22.27;;;8.60;;
20445;SDS011;10382;49.140;9.234;2023-04-15T11:00:17;16.90;;;7.00;;
20445;SDS011;10382;49.140;9.234;2023-04-15T11:02:45;15.67;;;7.37;;
20445;SDS011;10382;49.140;9.234;2023-04-15T11:05:13;17.87;;;6.70;;
20445;SDS011;10382;49.140;9.234;2023-04-15T11:07:47;13.43;;;6.37;;
20445;SDS011;10382;49.140;9.234;2023-04-15T11:13:18;18.40;;;6.80;;
20445;SDS011;10382;49.140;9.234;2023-04-15T11:15:52;17.13;;;6.67;;
20445;SDS011;10382;49.140;9.234;2023-04-15T11:18:26;27.43;;;6.90;;
20445;SDS011;10382;49.140;9.234;2023-04-15T11:20:59;18.30;;;6.03;;
20445;SDS011;10382;49.140;9.234;2023-04-15T11:23:36;11.20;;;4.47;;
20445;SDS011;10382;49.140;9.234;2023-04-15T11:26:05;21.67;;;6.70;;
20445;SDS011;10382;49.140;9.234;2023-04-15T11:28:36;16.73;;;4.60;;
20445;SDS011;10382;49.140;9.234;2023-04-15T11:31:07;26.50;;;6.77;;
20445;SDS011;10382;49.140;9.234;2023-04-15T11:33:35;26.10;;;7.67;;
20445;SDS011;10382;49.140;9.234;2023-04-15T11:36:03;14.93;;;6.20;;
20445;SDS011;10382;49.140;9.234;2023-04-15T11:38:30;13.27;;;5.33;;
20445;SDS011;10382;49.140;9.234;2023-04-15T11:41:00;25.30;;;5.87;;
20445;SDS011;10382;49.140;9.234;2023-04-15T11:43:27;19.50;;;6.90;;
20445;SDS011;10382;49.140;9.234;2023-04-15T11:45:59;10.70;;;5.03;;
20445;SDS011;10382;49.140;9.234;2023-04-15T11:48:28;10.57;;;4.33;;
20445;SDS011;10382;49.140;9.234;2023-04-15T11:50:56;16.43;;;6.60;;
20445;SDS011;10382;49.140;9.234;2023-04-15T11:56:03;22.43;;;7.10;;
20445;SDS011;10382;49.140;9.234;2023-04-15T11:58:32;45.67;;;8.50;;
20445;SDS011;10382;49.140;9.234;2023-04-15T12:01:00;9.70;;;4.80;;
20445;SDS011;10382;49.140;9.234;2023-04-15T12:03:28;18.90;;;6.83;;
20445;SDS011;10382;49.140;9.234;2023-04-15T12:06:05;24.23;;;8.77;;
20445;SDS011;10382;49.140;9.234;2023-04-15T12:08:47;32.37;;;9.50;;
20445;SDS011;10382;49.140;9.234;2023-04-15T12:11:20;30.83;;;7.63;;
20445;SDS011;10382;49.140;9.234;2023-04-15T12:13:54;22.90;;;7.07;;
20445;SDS011;10382;49.140;9.234;2023-04-15T12:16:21;16.20;;;5.13;;
20445;SDS011;10382;49.140;9.234;2023-04-15T12:18:50;28.97;;;8.10;;
20445;SDS011;10382;49.140;9.234;2023-04-15T12:21:20;12.20;;;4.63;;
20445;SDS011;10382;49.140;9.234;2023-04-15T12:23:47;15.50;;;5.90;;
20445;SDS011;10382;49.140;9.234;2023-04-15T12:26:15;19.60;;;5.87;;
20445;SDS011;10382;49.140;9.234;2023-04-15T12:28:44;26.63;;;8.27;;
20445;SDS011;10382;49.140;9.234;2023-04-15T12:31:11;23.83;;;6.80;;
20445;SDS011;10382;49.140;9.234;2023-04-15T12:33:40;23.77;;;8.23;;
20445;SDS011;10382;49.140;9.234;2023-04-15T12:36:06;21.87;;;5.77;;
20445;SDS011;10382;49.140;9.234;2023-04-15T12:38:33;12.03;;;4.70;;
20445;SDS011;10382;49.140;9.234;2023-04-15T12:41:00;17.40;;;5.23;;
20445;SDS011;10382;49.140;9.234;2023-04-15T12:43:27;11.97;;;4.90;;
20445;SDS011;10382;49.140;9.234;2023-04-15T12:45:55;17.13;;;6.03;;
20445;SDS011;10382;49.140;9.234;2023-04-15T12:48:22;14.40;;;4.80;;
20445;SDS011;10382;49.140;9.234;2023-04-15T12:50:49;14.93;;;4.50;;
20445;SDS011;10382;49.140;9.234;2023-04-15T12:53:16;8.60;;;3.80;;
20445;SDS011;10382;49.140;9.234;2023-04-15T12:55:43;7.47;;;3.57;;
20445;SDS011;10382;49.140;9.234;2023-04-15T12:58:10;9.90;;;4.07;;
20445;SDS011;10382;49.140;9.234;2023-04-15T13:00:37;5.97;;;2.90;;
20445;SDS011;10382;49.140;9.234;2023-04-15T13:03:06;14.50;;;3.93;;
20445;SDS011;10382;49.140;9.234;2023-04-15T13:05:32;12.17;;;4.30;;
20445;SDS011;10382;49.140;9.234;2023-04-15T13:08:01;10.57;;;3.83;;
20445;SDS011;10382;49.140;9.234;2023-04-15T13:10:28;11.57;;;4.70;;
20445;SDS011;10382;49.140;9.234;2023-04-15T13:12:55;16.97;;;4.53;;
20445;SDS011;10382;49.140;9.234;2023-04-15T13:15:22;7.13;;;3.40;;
20445;SDS011;10382;49.140;9.234;2023-04-15T13:17:50;16.83;;;5.27;;
20445;SDS011;10382;49.140;9.234;2023-04-15T13:20:18;12.60;;;4.27;;
20445;SDS011;10382;49.140;9.234;2023-04-15T13:22:45;13.83;;;4.93;;
20445;SDS011;10382;49.140;9.234;2023-04-15T13:25:12;10.33;;;3.93;;
20445;SDS011;10382;49.140;9.234;2023-04-15T13:27:39;16.93;;;5.80;;
20445;SDS011;10382;49.140;9.234;2023-04-15T13:30:06;9.87;;;4.60;;
20445;SDS011;10382;49.140;9.234;2023-04-15T13:32:33;13.80;;;5.13;;
20445;SDS011;10382;49.140;9.234;2023-04-15T13:35:00;11.50;;;4.80;;
20445;SDS011;10382;49.140;9.234;2023-04-15T13:37:29;9.10;;;3.70;;
20445;SDS011;10382;49.140;9.234;2023-04-15T13:39:56;19.40;;;7.90;;
20445;SDS011;10382;49.140;9.234;2023-04-15T13:42:23;13.43;;;4.90;;
20445;SDS011;10382;49.140;9.234;2023-04-15T13:44:50;13.57;;;5.10;;
20445;SDS011;10382;49.140;9.234;2023-04-15T13:47:17;12.57;;;5.87;;
20445;SDS011;10382;49.140;9.234;2023-04-15T13:49:45;10.43;;;4.70;;
20445;SDS011;10382;49.140;9.234;2023-04-15T13:52:12;10.60;;;3.87;;
20445;SDS011;10382;49.140;9.234;2023-04-15T13:54:40;17.80;;;6.60;;
20445;SDS011;10382;49.140;9.234;2023-04-15T13:57:07;15.77;;;6.30;;
20445;SDS011;10382;49.140;9.234;2023-04-15T13:59:34;12.53;;;4.47;;
20445;SDS011;10382;49.140;9.234;2023-04-15T14:02:01;8.83;;;3.73;;
20445;SDS011;10382;49.140;9.234;2023-04-15T14:04:29;5.30;;;2.83;;
20445;SDS011;10382;49.140;9.234;2023-04-15T14:06:56;9.57;;;3.80;;
20445;SDS011;10382;49.140;9.234;2023-04-15T14:09:23;11.13;;;4.20;;
20445;SDS011;10382;49.140;9.234;2023-04-15T14:11:51;11.23;;;4.77;;
20445;SDS011;10382;49.140;9.234;2023-04-15T14:14:18;5.17;;;3.00;;
20445;SDS011;10382;49.140;9.234;2023-04-15T14:16:45;7.87;;;3.40;;
20445;SDS011;10382;49.140;9.234;2023-04-15T14:19:13;9.77;;;4.07;;
20445;SDS011;10382;49.140;9.234;2023-04-15T14:21:40;8.50;;;3.70;;
20445;SDS011;10382;49.140;9.234;2023-04-15T14:24:07;7.77;;;2.80;;
20445;SDS011;10382;49.140;9.234;2023-04-15T14:26:33;7.13;;;3.27;;
20445;SDS011;10382;49.140;9.234;2023-04-15T14:29:02;9.50;;;3.73;;
20445;SDS011;10382;49.140;9.234;2023-04-15T14:31:29;7.30;;;3.63;;
20445;SDS011;10382;49.140;9.234;2023-04-15T14:33:56;17.73;;;3.90;;
20445;SDS011;10382;49.140;9.234;2023-04-15T14:36:23;11.70;;;5.00;;
20445;SDS011;10382;49.140;9.234;2023-04-15T14:38:50;15.43;;;6.70;;
20445;SDS011;10382;49.140;9.234;2023-04-15T14:41:16;19.47;;;5.57;;
20445;SDS011;10382;49.140;9.234;2023-04-15T14:43:43;13.73;;;6.23;;
20445;SDS011;10382;49.140;9.234;2023-04-15T14:46:12;6.63;;;3.00;;